Time;durP1;ratioP1;P1;durP2;ratioP2;P2;SDS_P1;SDS_P2;PMS_P1;PMS_P2;Temp;Humidity;BMP_temperature;BMP_pressure;BME280_temperature;BME280_humidity;BME280_pressure;Samples;Min_cycle;Max_cycle;Signal;HPM_P1;HPM_P2
2023/03/23 00:01:21;;;;;;;24.70;13.60;;;;;;;10.95;54.46;99490.55;79423;1298;3011666;-62
2023/03/23 00:03:50;;;;;;;22.10;13.40;;;;;;;10.95;54.32;99491.47;78128;1299;3050669;-63
2023/03/23 00:06:17;;;;;;;22.90;13.00;;;;;;;10.92;54.65;99489.52;79552;1295;3013014;-63
2023/03/23 00:08:46;;;;;;;23.90;13.70;;;;;;;10.92;54.48;99492.15;79295;1292;3011610;-64
2023/03/23 00:11:19;;;;;;;28.80;14.50;;;;;;;10.91;54.42;99489.23;78093;1295;3049640;-62
2023/03/23 00:13:51;;;;;;;28.40;16.40;;;;;;;10.90;54.48;99489.27;78831;1297;3014039;-63
2023/03/23 00:16:28;;;;;;;27.00;14.90;;;;;;;10.90;54.53;99489.81;79464;1298;3013401;-63
2023/03/23 00:19:03;;;;;;;29.10;15.50;;;;;;;10.86;54.57;99489.36;78298;1297;3069738;-63
2023/03/23 00:21:34;;;;;;;32.30;15.80;;;;;;;10.86;54.66;99488.66;78867;1295;3012173;-63
2023/03/23 00:24:10;;;;;;;29.10;15.40;;;;;;;10.84;54.54;99491.89;79612;1293;3012788;-61
2023/03/23 00:26:43;;;;;;;34.60;16.90;;;;;;;10.82;54.27;99488.88;78183;1298;3056510;-62
2023/03/23 00:29:15;;;;;;;35.60;17.90;;;;;;;10.84;54.23;99486.88;79456;1298;3011631;-64
2023/03/23 00:31:46;;;;;;;43.50;19.70;;;;;;;10.86;54.55;99487.75;78112;1298;3053086;-61
2023/03/23 00:34:21;;;;;;;37.30;18.30;;;;;;;10.88;54.42;99489.20;79434;1298;3011669;-65
2023/03/23 00:36:53;;;;;;;34.80;16.90;;;;;;;10.88;54.57;99486.45;78424;1297;3053573;-65
2023/03/23 00:39:19;;;;;;;33.20;15.50;;;;;;;10.86;54.70;99489.67;79374;1298;3013077;-66
2023/03/23 00:41:50;;;;;;;32.50;12.60;;;;;;;10.84;54.63;99490.15;78287;1297;3069157;-62
2023/03/23 00:44:17;;;;;;;32.00;15.60;;;;;;;10.83;54.63;99489.70;79253;1299;3011642;-64
2023/03/23 00:46:49;;;;;;;50.90;22.40;;;;;;;10.79;54.75;99488.39;79519;1295;3013221;-64
2023/03/23 00:49:19;;;;;;;34.70;16.70;;;;;;;10.74;55.10;99483.24;78263;1293;3053708;-60
2023/03/23 00:51:46;;;;;;;45.40;20.30;;;;;;;10.71;54.93;99487.98;79330;1298;3012987;-62
2023/03/23 00:54:14;;;;;;;56.30;24.70;;;;;;;10.67;55.32;99483.98;79433;1298;3011949;-64
2023/03/23 00:56:42;;;;;;;57.90;25.50;;;;;;;10.65;55.59;99482.91;78321;1293;3069269;-62
2023/03/23 00:59:14;;;;;;;43.70;21.00;;;;;;;10.67;55.68;99484.89;79247;1295;3013112;-65
2023/03/23 01:01:43;;;;;;;31.90;15.10;;;;;;;10.66;55.74;99481.66;78084;1300;3057921;-63
2023/03/23 01:04:12;;;;;;;30.50;15.30;;;;;;;10.66;55.72;99477.59;79315;1292;3013537;-64
2023/03/23 01:06:42;;;;;;;30.30;14.60;;;;;;;10.63;55.73;99474.46;79496;1295;3012148;-64
2023/03/23 01:09:14;;;;;;;28.40;16.20;;;;;;;10.62;55.60;99477.31;78420;1298;3053461;-65
2023/03/23 01:11:44;;;;;;;40.70;19.90;;;;;;;10.62;55.62;99475.24;79367;1300;3011634;-64
2023/03/23 01:14:13;;;;;;;32.30;18.50;;;;;;;10.59;56.19;99472.23;78178;1293;3072017;-63
2023/03/23 01:16:39;;;;;;;48.30;22.70;;;;;;;10.59;56.18;99472.07;79698;1295;3015007;-62
2023/03/23 01:19:06;;;;;;;41.70;21.50;;;;;;;10.54;56.16;99471.30;79434;1292;3011682;-63
2023/03/23 01:21:35;;;;;;;33.60;17.40;;;;;;;10.51;56.12;99470.79;77985;1300;3052632;-63
2023/03/23 01:24:02;;;;;;;31.40;16.40;;;;;;;10.49;56.11;99470.05;79780;1299;3013468;-64
2023/03/23 01:26:29;;;;;;;31.80;16.80;;;;;;;10.47;56.27;99474.00;79596;1299;3012932;-63
2023/03/23 01:28:57;;;;;;;33.30;18.10;;;;;;;10.45;56.43;99473.60;78195;1300;3028396;-65
2023/03/23 01:31:24;;;;;;;35.40;19.80;;;;;;;10.43;56.76;99471.10;79181;1295;3013092;-63
2023/03/23 01:33:51;;;;;;;44.90;23.90;;;;;;;10.35;57.46;99476.10;79240;1294;3011895;-64
2023/03/23 01:36:22;;;;;;;43.70;21.80;;;;;;;10.33;57.67;99475.69;78172;1299;3053601;-61
2023/03/23 01:38:51;;;;;;;;;;;;;;;10.35;57.47;99474.89;79201;1294;3011690;-61
2023/03/23 01:41:20;;;;;;;41.20;21.60;;;;;;;10.30;57.69;99474.66;78210;1298;3054318;-65
2023/03/23 01:43:59;;;;;;;38.60;21.40;;;;;;;10.24;58.00;99473.75;79163;1300;3012146;-64
2023/03/23 01:46:32;;;;;;;34.00;20.10;;;;;;;10.22;57.85;99469.69;78255;1296;3070813;-63
2023/03/23 01:49:08;;;;;;;50.60;25.10;;;;;;;10.17;57.75;99474.32;79294;1300;3011847;-64
2023/03/23 01:51:42;;;;;;;57.70;26.70;;;;;;;10.18;57.85;99475.70;78120;1292;3057224;-64
2023/03/23 01:54:13;;;;;;;46.80;24.40;;;;;;;10.17;57.73;99471.55;79587;1298;3011560;-63
2023/03/23 01:56:46;;;;;;;54.20;25.30;;;;;;;10.17;57.58;99475.07;77888;1301;3053330;-63
2023/03/23 01:59:13;;;;;;;43.10;22.10;;;;;;;10.15;57.51;99476.42;79106;1301;3012895;-64
2023/03/23 02:01:46;;;;;;;42.70;23.10;;;;;;;10.12;57.61;99473.60;77997;1300;3054695;-62
2023/03/23 02:04:14;;;;;;;48.40;22.20;;;;;;;10.12;58.02;99477.29;79466;1298;3011675;-63
2023/03/23 02:06:44;;;;;;;40.00;20.90;;;;;;;10.10;58.11;99477.42;78107;1295;3051926;-65
2023/03/23 02:09:19;;;;;;;42.60;21.30;;;;;;;10.09;58.19;99474.29;79492;1292;3012456;-63
2023/03/23 02:11:49;;;;;;;40.90;21.40;;;;;;;10.13;58.04;99475.84;78115;1293;3050622;-63
2023/03/23 02:14:19;;;;;;;47.20;22.80;;;;;;;10.12;57.95;99477.09;79435;1298;3013287;-64
2023/03/23 02:16:51;;;;;;;43.90;23.50;;;;;;;10.13;57.90;99476.89;78077;1300;3050956;-63
2023/03/23 02:19:31;;;;;;;48.20;23.40;;;;;;;10.10;58.09;99477.91;79560;1298;3011647;-64
2023/03/23 02:22:14;;;;;;;36.60;22.60;;;;;;;10.06;58.21;99480.73;78290;1297;3053375;-64
2023/03/23 02:25:22;;;;;;;43.10;24.20;;;;;;;10.04;58.34;99480.52;78223;1301;3070866;-63
2023/03/23 02:27:52;;;;;;;45.90;21.60;;;;;;;9.99;58.72;99484.81;78123;1292;3051739;-64
2023/03/23 02:30:53;;;;;;;43.30;22.30;;;;;;;9.99;58.30;99484.48;79568;1297;3018790;-63
2023/03/23 02:33:40;;;;;;;39.10;23.30;;;;;;;9.97;58.61;99486.70;78184;1298;3054354;-63
2023/03/23 02:36:26;;;;;;;38.90;22.90;;;;;;;9.93;58.93;99485.67;78059;1297;3050481;-64
2023/03/23 02:39:00;;;;;;;45.40;24.90;;;;;;;9.88;59.13;99485.46;78330;1295;3053164;-64
2023/03/23 02:41:32;;;;;;;42.10;24.60;;;;;;;9.85;59.18;99486.36;79260;1300;3011670;-62
2023/03/23 02:44:01;;;;;;;41.70;24.10;;;;;;;9.80;59.49;99488.37;78069;1298;3068119;-62
2023/03/23 02:46:30;;;;;;;41.00;22.90;;;;;;;9.78;59.42;99490.08;79433;1295;3011991;-65
2023/03/23 02:49:00;;;;;;;41.30;23.10;;;;;;;9.75;59.67;99487.27;79075;1292;3011653;-65
2023/03/23 02:51:26;;;;;;;36.90;22.30;;;;;;;9.72;59.59;99488.27;79018;1295;3013238;-63
2023/03/23 02:53:54;;;;;;;42.40;22.20;;;;;;;9.72;59.81;99490.89;79276;1295;3011567;-66
2023/03/23 02:56:23;;;;;;;42.00;23.30;;;;;;;9.66;60.14;99493.86;78393;1299;3051984;-63
2023/03/23 02:58:55;;;;;;;48.60;24.00;;;;;;;9.60;60.38;99494.39;79552;1298;3011419;-63
2023/03/23 03:01:28;;;;;;;47.40;24.80;;;;;;;9.60;60.12;99492.14;78232;1299;3069953;-62
2023/03/23 03:03:56;;;;;;;49.30;25.70;;;;;;;9.59;60.25;99487.82;79110;1293;3012732;-63
2023/03/23 03:06:33;;;;;;;47.20;25.80;;;;;;;9.57;60.15;99484.95;78156;1295;3056227;-62
2023/03/23 03:09:14;;;;;;;61.40;28.60;;;;;;;9.57;59.98;99486.14;77991;1293;3048604;-66
2023/03/23 03:11:45;;;;;;;62.00;31.10;;;;;;;9.57;60.07;99486.67;78126;1301;3052963;-63
2023/03/23 03:14:17;;;;;;;57.60;30.60;;;;;;;9.57;60.13;99493.15;79250;1292;3013138;-64
2023/03/23 03:16:53;;;;;;;63.80;32.40;;;;;;;9.53;60.47;99489.39;78017;1300;3054206;-63
2023/03/23 03:19:31;;;;;;;64.00;33.40;;;;;;;9.49;60.66;99494.69;78034;1300;3052006;-64
2023/03/23 03:21:58;;;;;;;70.80;34.30;;;;;;;9.42;60.76;99496.95;79391;1298;3013054;-64
2023/03/23 03:24:56;;;;;;;57.60;29.30;;;;;;;9.43;60.63;99495.88;78229;1299;3052469;-63
2023/03/23 03:27:23;;;;;;;52.30;27.50;;;;;;;9.42;60.62;99498.52;79419;1295;3012886;-64
2023/03/23 03:30:03;;;;;;;53.60;27.10;;;;;;;9.45;60.36;99499.61;78044;1299;3050728;-64
2023/03/23 03:32:36;;;;;;;50.80;26.40;;;;;;;9.44;60.30;99502.66;79506;1298;3012938;-62
2023/03/23 03:35:05;;;;;;;50.00;25.10;;;;;;;9.43;60.25;99503.92;77854;1296;3050729;-64
2023/03/23 03:37:37;;;;;;;45.50;23.60;;;;;;;9.42;60.23;99499.77;79427;1295;3013351;-64
2023/03/23 03:40:15;;;;;;;44.10;23.70;;;;;;;9.39;60.22;99495.35;77962;1300;3053527;-64
2023/03/23 03:42:44;;;;;;;41.90;24.30;;;;;;;9.37;60.27;99501.05;78021;1300;3070117;-64
2023/03/23 03:45:20;;;;;;;44.20;23.60;;;;;;;9.36;60.33;99500.27;77871;1300;3051223;-64
2023/03/23 03:47:50;;;;;;;43.50;23.90;;;;;;;9.35;60.33;99501.55;79057;1295;3011556;-65
2023/03/23 03:50:18;;;;;;;38.20;23.40;;;;;;;9.31;60.65;99499.49;78188;1295;3049488;-63
2023/03/23 03:52:45;;;;;;;40.80;23.10;;;;;;;9.27;60.71;99502.34;79196;1300;3013693;-62
2023/03/23 03:55:12;;;;;;;42.10;23.20;;;;;;;9.21;61.10;99500.05;79181;1296;3011531;-64
2023/03/23 03:57:43;;;;;;;37.70;22.20;;;;;;;9.20;61.13;99500.77;78056;1301;3053632;-63
2023/03/23 04:00:47;;;;;;;39.80;22.20;;;;;;;9.16;61.45;99503.97;78060;1295;3069468;-64
2023/03/23 04:03:16;;;;;;;39.50;21.90;;;;;;;9.13;61.53;99503.77;79272;1295;3013327;-64
2023/03/23 04:05:59;;;;;;;39.20;21.80;;;;;;;9.14;61.55;99503.55;78144;1298;3049950;-64
2023/03/23 04:08:27;;;;;;;38.60;20.60;;;;;;;9.16;61.11;99503.45;79254;1295;3013074;-64
2023/03/23 04:10:57;;;;;;;38.00;19.40;;;;;;;9.15;60.97;99502.98;78940;1294;3012312;-64
2023/03/23 04:13:25;;;;;;;42.60;20.60;;;;;;;9.14;60.80;99506.33;79382;1300;3011834;-64
2023/03/23 04:16:29;;;;;;;31.70;18.70;;;;;;;9.19;60.69;99506.81;77652;1301;3052761;-63
2023/03/23 04:18:57;;;;;;;37.20;19.50;;;;;;;9.21;60.55;99508.38;79218;1294;3013099;-64
2023/03/23 04:21:30;;;;;;;35.30;19.80;;;;;;;9.25;60.40;99512.59;78690;1300;3011520;-63
2023/03/23 04:24:00;;;;;;;32.50;18.20;;;;;;;9.25;60.31;99514.85;79399;1297;3011579;-63
2023/03/23 04:26:29;;;;;;;31.80;17.40;;;;;;;9.26;60.30;99517.73;78187;1296;3048867;-63
2023/03/23 04:29:05;;;;;;;28.90;17.60;;;;;;;9.24;60.40;99519.41;78067;1296;3052767;-64
2023/03/23 04:31:35;;;;;;;29.00;17.40;;;;;;;9.22;60.43;99524.09;79374;1299;3012217;-64
2023/03/23 04:34:23;;;;;;;31.30;17.50;;;;;;;9.23;60.48;99526.64;78080;1299;3056000;-64
2023/03/23 04:36:51;;;;;;;30.30;17.60;;;;;;;9.28;60.37;99527.84;79511;1299;3011575;-64
2023/03/23 04:39:24;;;;;;;31.90;16.90;;;;;;;9.30;60.28;99527.18;78186;1300;3069713;-64
2023/03/23 04:42:00;;;;;;;28.60;15.70;;;;;;;9.29;60.23;99520.96;78714;1299;3013008;-64
2023/03/23 04:44:54;;;;;;;31.80;17.30;;;;;;;9.31;60.25;99522.91;78067;1297;3051639;-62
2023/03/23 04:47:30;;;;;;;27.80;15.90;;;;;;;9.29;60.49;99524.92;77975;1298;3056487;-63
2023/03/23 04:49:59;;;;;;;31.40;16.40;;;;;;;9.30;60.67;99530.52;79386;1296;3011597;-64
2023/03/23 04:52:33;;;;;;;29.60;16.20;;;;;;;9.32;60.65;99528.98;78065;1300;3054326;-64
2023/03/23 04:55:07;;;;;;;32.10;17.70;;;;;;;9.31;60.88;99531.13;79272;1296;3011964;-62
2023/03/23 04:57:35;;;;;;;35.10;19.70;;;;;;;9.29;61.36;99532.44;78001;1303;3052827;-64
2023/03/23 05:00:39;;;;;;;;;;;;;;;9.34;61.00;99532.18;78077;1300;3053629;-64
2023/03/23 05:03:07;;;;;;;28.40;16.40;;;;;;;9.31;61.22;99533.08;79232;1300;3013499;-65
2023/03/23 05:05:34;;;;;;;30.80;17.90;;;;;;;9.36;60.92;99533.99;79526;1296;3014127;-65
2023/03/23 05:08:07;;;;;;;33.30;18.10;;;;;;;9.41;60.97;99531.11;77958;1300;3049977;-64
2023/03/23 05:10:36;;;;;;;38.60;19.70;;;;;;;9.45;60.97;99534.20;79432;1300;3011688;-65
2023/03/23 05:13:08;;;;;;;32.50;17.80;;;;;;;9.51;60.97;99533.55;78007;1300;3050075;-63
2023/03/23 05:15:35;;;;;;;36.20;19.70;;;;;;;9.55;61.17;99534.41;79162;1301;3018799;-64
2023/03/23 05:18:02;;;;;;;37.90;20.40;;;;;;;9.55;61.33;99534.34;79555;1299;3011560;-65
2023/03/23 05:20:39;;;;;;;;;;;;;;;9.64;61.23;99535.96;78201;1298;3053013;-64
2023/03/23 05:23:12;;;;;;;30.40;16.30;;;;;;;9.69;61.05;99532.71;79625;1298;3011776;-64
2023/03/23 05:25:40;;;;;;;36.00;18.00;;;;;;;9.78;60.80;99533.25;78419;1299;3050478;-62
2023/03/23 05:28:12;;;;;;;38.60;18.60;;;;;;;9.91;60.47;99532.54;79255;1298;3011614;-64
2023/03/23 05:30:53;;;;;;;32.40;17.70;;;;;;;10.02;60.35;99534.70;78061;1298;3049987;-64
2023/03/23 05:33:29;;;;;;;37.30;18.80;;;;;;;10.13;59.91;99536.20;78018;1302;3052994;-63
2023/03/23 05:36:16;;;;;;;31.20;16.80;;;;;;;10.22;59.74;99535.50;78242;1302;3055168;-65
2023/03/23 05:39:04;;;;;;;38.50;17.80;;;;;;;10.33;59.67;99533.29;78000;1299;3070181;-65
2023/03/23 05:41:52;;;;;;;37.20;19.20;;;;;;;10.43;59.24;99536.21;78203;1308;3052835;-65
2023/03/23 05:44:19;;;;;;;38.20;20.30;;;;;;;10.51;59.33;99539.09;79282;1298;3016063;-65
2023/03/23 05:46:52;;;;;;;40.90;19.80;;;;;;;10.59;59.13;99543.50;78468;1296;3053838;-65
2023/03/23 05:49:20;;;;;;;37.70;19.50;;;;;;;10.67;59.16;99541.15;79576;1300;3013632;-64
2023/03/23 05:51:52;;;;;;;40.60;19.80;;;;;;;10.78;58.89;99544.89;77938;1299;3052457;-63
2023/03/23 05:54:19;;;;;;;33.80;18.10;;;;;;;10.87;58.49;99546.43;79582;1298;3013169;-64
2023/03/23 05:56:48;;;;;;;35.60;16.90;;;;;;;10.96;58.32;99545.16;79346;1300;3013198;-64
2023/03/23 05:59:36;;;;;;;34.20;16.10;;;;;;;11.03;57.90;99546.12;78002;1298;3049723;-64
2023/03/23 06:02:05;;;;;;;28.20;17.00;;;;;;;11.05;57.60;99547.05;79386;1296;3011626;-65
2023/03/23 06:04:35;;;;;;;27.20;16.50;;;;;;;11.11;57.63;99552.30;78053;1300;3052230;-63
2023/03/23 06:07:14;;;;;;;28.40;15.80;;;;;;;11.19;57.41;99553.73;78018;1301;3053984;-64
2023/03/23 06:09:47;;;;;;;26.00;14.30;;;;;;;11.30;57.52;99558.88;78938;1300;3011864;-62
2023/03/23 06:12:27;;;;;;;25.30;14.30;;;;;;;11.37;57.12;99561.05;78017;1297;3069638;-64
2023/03/23 06:15:14;;;;;;;26.50;15.20;;;;;;;11.48;57.14;99564.25;78390;1296;3052661;-65
2023/03/23 06:18:15;;;;;;;26.30;15.30;;;;;;;11.53;56.40;99565.54;78104;1300;3058277;-63
2023/03/23 06:21:05;;;;;;;28.40;15.20;;;;;;;11.58;56.45;99565.86;77980;1301;3050963;-65
2023/03/23 06:23:55;;;;;;;25.80;15.50;;;;;;;11.68;56.75;99567.91;78088;1301;3053191;-64
2023/03/23 06:26:30;;;;;;;30.40;15.10;;;;;;;11.76;56.48;99567.77;77878;1300;3013728;-64
2023/03/23 06:29:00;;;;;;;28.50;15.90;;;;;;;11.83;56.23;99567.81;77950;1300;3051760;-63
2023/03/23 06:31:28;;;;;;;29.30;16.70;;;;;;;11.91;56.45;99568.19;79336;1299;3013183;-63
2023/03/23 06:33:58;;;;;;;30.80;17.80;;;;;;;11.95;55.82;99570.39;78700;1300;3012879;-64
2023/03/23 06:36:26;;;;;;;33.60;17.90;;;;;;;12.05;55.77;99572.45;79374;1295;3013244;-63
2023/03/23 06:39:19;;;;;;;30.90;16.10;;;;;;;12.10;55.51;99570.14;78039;1298;3049767;-63
2023/03/23 06:42:13;;;;;;;35.70;18.90;;;;;;;12.22;55.09;99571.67;78055;1300;3054371;-63
2023/03/23 06:44:52;;;;;;;28.30;16.50;;;;;;;12.26;54.74;99571.57;78031;1300;3050349;-62
2023/03/23 06:47:19;;;;;;;29.60;16.90;;;;;;;12.31;54.53;99569.70;79294;1300;3011532;-63
2023/03/23 06:49:50;;;;;;;28.70;17.90;;;;;;;12.38;54.37;99571.97;78775;1296;3012033;-64
2023/03/23 06:52:25;;;;;;;31.30;17.10;;;;;;;12.47;54.28;99570.16;78256;1296;3070419;-62
2023/03/23 06:54:52;;;;;;;32.10;17.50;;;;;;;12.51;53.90;99573.42;79277;1298;3013721;-64
2023/03/23 06:57:19;;;;;;;34.00;19.00;;;;;;;12.54;53.53;99574.13;79356;1300;3011935;-63
2023/03/23 06:59:48;;;;;;;30.00;17.70;;;;;;;12.60;53.12;99572.48;78165;1299;3053889;-64
2023/03/23 07:02:14;;;;;;;31.00;18.00;;;;;;;12.66;52.71;99569.08;79402;1300;3013262;-65
2023/03/23 07:04:43;;;;;;;31.10;17.40;;;;;;;12.78;52.75;99568.31;79395;1300;3011933;-64
2023/03/23 07:07:18;;;;;;;30.60;18.40;;;;;;;12.85;52.53;99567.59;78092;1301;3069848;-62
2023/03/23 07:09:55;;;;;;;28.40;16.80;;;;;;;12.90;52.40;99564.63;78059;1301;3052658;-64
2023/03/23 07:12:25;;;;;;;32.90;18.70;;;;;;;12.95;52.21;99566.29;79308;1298;3013751;-63
2023/03/23 07:14:55;;;;;;;30.90;16.70;;;;;;;12.96;51.85;99566.39;78989;1296;3011690;-64
2023/03/23 07:17:21;;;;;;;31.60;16.30;;;;;;;12.99;51.51;99569.83;79020;1300;3016074;-65
2023/03/23 07:20:04;;;;;;;25.70;15.60;;;;;;;13.05;51.32;99571.54;78070;1299;3052381;-64
2023/03/23 07:22:32;;;;;;;29.30;15.40;;;;;;;13.10;51.12;99575.23;79505;1302;3012980;-66
2023/03/23 07:25:07;;;;;;;26.80;16.00;;;;;;;13.14;51.17;99575.16;78066;1302;3052501;-65
2023/03/23 07:27:46;;;;;;;27.80;15.80;;;;;;;13.23;50.89;99570.13;78296;1292;3057076;-64
2023/03/23 07:30:14;;;;;;;28.40;15.20;;;;;;;13.32;50.83;99569.65;79308;1297;3014323;-63
2023/03/23 07:32:41;;;;;;;26.40;14.40;;;;;;;13.47;50.87;99568.09;79361;1306;3011892;-64
2023/03/23 07:35:10;;;;;;;26.50;13.60;;;;;;;13.58;50.12;99570.46;78148;1296;3052074;-64
2023/03/23 07:37:48;;;;;;;24.90;15.60;;;;;;;13.67;49.63;99572.17;78065;1308;3054401;-63
2023/03/23 07:40:15;;;;;;;25.30;14.40;;;;;;;13.67;48.92;99572.68;79400;1301;3011409;-64
2023/03/23 07:42:52;;;;;;;22.00;14.30;;;;;;;13.78;49.38;99573.33;78095;1300;3052790;-58
2023/03/23 07:45:26;;;;;;;24.40;14.60;;;;;;;13.82;48.18;99577.27;78064;1301;3058310;-57
2023/03/23 07:47:55;;;;;;;25.00;15.10;;;;;;;13.88;48.27;99571.15;79396;1295;3011689;-60
2023/03/23 07:50:26;;;;;;;23.60;13.60;;;;;;;13.99;48.58;99571.39;78749;1308;3012138;-57
2023/03/23 07:52:55;;;;;;;30.80;14.00;;;;;;;14.12;48.19;99569.27;80674;1295;3012555;-56
2023/03/23 07:55:25;;;;;;;25.60;14.30;;;;;;;14.25;47.88;99569.67;78368;1300;3052894;-58
2023/03/23 07:58:01;;;;;;;30.30;14.40;;;;;;;14.35;47.85;99564.19;78197;1306;3054050;-59
2023/03/23 08:00:38;;;;;;;27.90;15.00;;;;;;;14.47;47.47;99567.55;78727;1302;3011683;-60
2023/03/23 08:03:06;;;;;;;23.40;14.60;;;;;;;14.52;47.42;99565.23;79472;1301;3013388;-58
2023/03/23 08:06:01;;;;;;;27.40;15.10;;;;;;;14.59;46.94;99564.30;77862;1296;3051055;-58
2023/03/23 08:08:32;;;;;;;27.70;15.50;;;;;;;14.71;47.38;99561.16;78727;1295;3011958;-59
2023/03/23 08:11:01;;;;;;;22.20;13.40;;;;;;;14.78;46.72;99566.31;79471;1295;3011668;-58
2023/03/23 08:13:50;;;;;;;20.80;12.40;;;;;;;14.93;46.62;99566.02;78007;1300;3051409;-59
2023/03/23 08:16:41;;;;;;;27.50;13.60;;;;;;;15.03;46.21;99564.01;78193;1300;3054109;-59
2023/03/23 08:19:08;;;;;;;25.20;12.50;;;;;;;15.08;46.44;99564.17;79506;1298;3013381;-59
2023/03/23 08:22:03;;;;;;;28.90;15.10;;;;;;;15.11;46.20;99563.39;78171;1299;3052915;-58
2023/03/23 08:24:44;;;;;;;20.70;13.60;;;;;;;15.14;46.38;99564.08;78241;1298;3070693;-58
2023/03/23 08:27:44;;;;;;;27.80;13.30;;;;;;;15.22;45.92;99564.98;78059;1300;3052091;-59
2023/03/23 08:30:22;;;;;;;28.60;11.80;;;;;;;15.25;45.58;99563.01;78276;1298;3057053;-60
2023/03/23 08:33:10;;;;;;;19.60;11.80;;;;;;;15.39;45.00;99564.55;78416;1301;3050816;-58
2023/03/23 08:35:56;;;;;;;25.30;11.70;;;;;;;15.43;44.73;99563.00;78155;1294;3054359;-59
2023/03/23 08:38:54;;;;;;;23.20;11.80;;;;;;;15.54;44.45;99557.70;77899;1300;3051293;-60
2023/03/23 08:41:57;;;;;;;16.00;10.50;;;;;;;15.72;43.88;99554.71;77409;1317;3052467;-58
2023/03/23 08:44:58;;;;;;;23.00;11.60;;;;;;;15.81;42.67;99556.13;77874;1299;3054455;-58
2023/03/23 08:47:51;;;;;;;18.40;10.80;;;;;;;15.89;42.51;99554.23;77975;1302;3070084;-60
2023/03/23 08:50:53;;;;;;;17.50;10.30;;;;;;;16.01;42.45;99551.36;77686;1300;3052524;-63
2023/03/23 08:53:47;;;;;;;22.20;11.90;;;;;;;16.12;42.10;99551.36;78167;1298;3057558;-63
2023/03/23 08:56:43;;;;;;;21.80;12.50;;;;;;;16.15;41.92;99549.00;78091;1298;3050417;-63
2023/03/23 08:59:30;;;;;;;26.40;12.80;;;;;;;16.19;42.34;99545.28;78335;1297;3054759;-64
2023/03/23 09:02:18;;;;;;;22.20;11.20;;;;;;;16.33;42.26;99544.80;77998;1298;3050740;-64
2023/03/23 09:05:07;;;;;;;29.30;14.10;;;;;;;16.50;42.07;99537.77;78345;1299;3054081;-66
2023/03/23 09:08:03;;;;;;;30.90;13.20;;;;;;;16.60;41.68;99533.52;78096;1301;3052176;-63
2023/03/23 09:10:34;;;;;;;26.50;13.30;;;;;;;16.66;41.68;99534.97;79312;1296;3011627;-64
2023/03/23 09:13:02;;;;;;;22.60;12.40;;;;;;;16.66;41.16;99530.40;78598;1297;3050926;-63
2023/03/23 09:15:31;;;;;;;33.50;15.30;;;;;;;16.76;41.19;99530.77;79357;1298;3013477;-65
2023/03/23 09:18:01;;;;;;;21.00;11.30;;;;;;;16.82;40.49;99528.52;78383;1297;3027342;-65
2023/03/23 09:20:29;;;;;;;25.30;11.60;;;;;;;16.87;40.63;99525.64;79458;1295;3013595;-65
2023/03/23 09:22:57;;;;;;;23.10;11.70;;;;;;;17.00;40.81;99522.80;79258;1300;3011615;-64
2023/03/23 09:25:26;;;;;;;19.30;10.10;;;;;;;17.03;40.32;99520.58;78289;1300;3053310;-65
2023/03/23 09:27:56;;;;;;;21.80;11.00;;;;;;;17.09;40.18;99513.85;79627;1299;3013519;-64
2023/03/23 09:30:26;;;;;;;20.70;12.20;;;;;;;17.19;39.92;99514.17;78487;1298;3057732;-64
2023/03/23 09:32:53;;;;;;;26.70;12.70;;;;;;;17.23;39.88;99511.08;79522;1294;3011640;-64
2023/03/23 09:35:23;;;;;;;23.90;11.80;;;;;;;17.31;40.23;99506.80;78849;1296;3011993;-65
2023/03/23 09:37:52;;;;;;;25.00;11.70;;;;;;;17.38;39.66;99502.43;79575;1298;3012386;-63
2023/03/23 09:40:23;;;;;;;25.20;10.90;;;;;;;17.44;39.50;99501.55;79257;1300;3011603;-63
2023/03/23 09:43:01;;;;;;;20.20;10.20;;;;;;;17.56;39.16;99495.95;78075;1299;3069871;-66
2023/03/23 09:45:38;;;;;;;22.40;11.60;;;;;;;17.69;39.07;99493.33;78251;1300;3051894;-64
2023/03/23 09:48:34;;;;;;;23.60;12.10;;;;;;;17.75;38.49;99492.91;78115;1298;3057665;-64
2023/03/23 09:51:07;;;;;;;25.90;12.00;;;;;;;17.87;38.45;99490.50;78007;1299;3049318;-65
2023/03/23 09:53:40;;;;;;;21.60;10.10;;;;;;;17.96;38.49;99490.23;79265;1295;3011721;-62
2023/03/23 09:56:32;;;;;;;23.10;9.70;;;;;;;18.07;37.31;99487.58;78144;1300;3049810;-63
2023/03/23 09:59:13;;;;;;;17.80;8.90;;;;;;;18.14;37.24;99489.48;78304;1298;3053667;-63
2023/03/23 10:01:48;;;;;;;18.20;9.70;;;;;;;18.27;37.40;99487.56;78084;1300;3053744;-65
2023/03/23 10:04:38;;;;;;;19.70;9.70;;;;;;;18.27;37.34;99487.53;78107;1296;3068410;-64
2023/03/23 10:07:11;;;;;;;17.60;8.10;;;;;;;18.35;37.00;99483.30;77913;1300;3052818;-64
2023/03/23 10:09:37;;;;;;;15.30;7.00;;;;;;;18.22;35.79;99483.04;79383;1297;3011613;-63
2023/03/23 10:12:16;;;;;;;14.00;6.10;;;;;;;18.28;35.99;99482.89;78239;1300;3049246;-62
2023/03/23 10:14:50;;;;;;;16.10;7.20;;;;;;;18.07;35.46;99480.02;78154;1300;3054402;-64
2023/03/23 10:17:17;;;;;;;17.30;6.80;;;;;;;18.02;35.67;99478.68;79141;1301;3013517;-64
2023/03/23 10:20:24;;;;;;;12.70;6.10;;;;;;;18.19;35.95;99474.67;78135;1300;3054055;-63
2023/03/23 10:23:01;;;;;;;10.80;6.10;;;;;;;18.24;35.24;99475.98;78060;1299;3053760;-65
2023/03/23 10:25:32;;;;;;;15.80;7.20;;;;;;;18.07;35.78;99472.02;78357;1300;3069653;-66
2023/03/23 10:28:07;;;;;;;18.60;8.30;;;;;;;17.95;36.25;99473.30;79378;1298;3013190;-65
2023/03/23 10:30:41;;;;;;;22.40;8.20;;;;;;;17.95;36.61;99470.33;78405;1296;3056656;-66
2023/03/23 10:33:27;;;;;;;15.10;7.50;;;;;;;18.11;36.59;99470.45;79338;1296;3011583;-65
2023/03/23 10:36:06;;;;;;;14.60;7.50;;;;;;;18.30;36.13;99466.73;78346;1296;3053777;-66
2023/03/23 10:38:43;;;;;;;18.90;7.70;;;;;;;18.41;35.32;99460.41;78304;1300;3050069;-67
2023/03/23 10:41:17;;;;;;;14.70;7.30;;;;;;;18.42;35.37;99461.34;78119;1298;3051801;-65
2023/03/23 10:43:45;;;;;;;17.20;8.80;;;;;;;18.60;35.16;99455.06;79437;1312;3011926;-64
2023/03/23 10:46:32;;;;;;;17.50;8.80;;;;;;;18.62;35.52;99452.06;78090;1296;3071269;-64
2023/03/23 10:49:05;;;;;;;18.20;9.30;;;;;;;18.75;35.69;99448.14;78316;1296;3052133;-66
2023/03/23 10:51:37;;;;;;;19.40;8.60;;;;;;;18.78;35.33;99446.08;79545;1295;3011603;-64
2023/03/23 10:54:08;;;;;;;18.00;8.40;;;;;;;18.81;35.17;99439.84;78154;1298;3049200;-65
2023/03/23 10:56:43;;;;;;;18.00;9.20;;;;;;;18.63;35.49;99439.73;79498;1298;3014866;-66
2023/03/23 10:59:20;;;;;;;16.40;9.30;;;;;;;18.61;35.78;99433.23;78502;1298;3053882;-65
2023/03/23 11:01:54;;;;;;;19.30;9.20;;;;;;;18.64;35.83;99433.08;78346;1298;3054121;-67
2023/03/23 11:04:23;;;;;;;18.70;8.60;;;;;;;18.45;35.65;99431.61;78846;1298;3011955;-67
2023/03/23 11:06:57;;;;;;;16.10;9.40;;;;;;;18.18;35.96;99427.90;79510;1297;3012832;-67
2023/03/23 11:09:37;;;;;;;20.90;8.70;;;;;;;17.90;36.40;99427.52;78320;1296;3051310;-65
2023/03/23 11:12:18;;;;;;;27.80;9.00;;;;;;;17.90;36.60;99423.20;78396;1298;3057731;-69
2023/03/23 11:14:49;;;;;;;17.00;8.60;;;;;;;18.00;36.51;99421.41;78229;1301;3051218;-68
2023/03/23 11:17:22;;;;;;;18.60;8.70;;;;;;;18.06;36.74;99419.84;79466;1296;3014827;-66
2023/03/23 11:19:50;;;;;;;17.70;9.50;;;;;;;18.23;36.62;99416.28;78337;1298;3052120;-68
2023/03/23 11:22:28;;;;;;;17.80;8.50;;;;;;;18.39;36.21;99411.98;79625;1298;3013125;-67
2023/03/23 11:25:01;;;;;;;20.70;9.00;;;;;;;18.68;35.94;99410.33;78081;1295;3068670;-67
2023/03/23 11:27:35;;;;;;;26.60;9.10;;;;;;;18.88;35.05;99407.67;78054;1295;3052445;-66
2023/03/23 11:30:15;;;;;;;18.80;9.40;;;;;;;18.85;35.26;99401.58;79350;1295;3013290;-67
2023/03/23 11:32:44;;;;;;;14.90;9.20;;;;;;;18.73;35.30;99403.78;78115;1301;3053487;-66
2023/03/23 11:35:17;;;;;;;20.30;9.60;;;;;;;18.69;35.55;99401.40;79351;1300;3013684;-69
2023/03/23 11:37:57;;;;;;;16.90;8.60;;;;;;;18.83;35.42;99400.56;78248;1300;3053526;-65
2023/03/23 11:40:31;;;;;;;17.90;8.10;;;;;;;18.99;34.85;99395.86;78289;1295;3068544;-66